sensor_id;sensor_type;location;lat;lon;timestamp;P1;durP1;ratioP1;P2;durP2;ratioP2
846;SDS011;410;48.954;9.474;2022-10-16T00:01:18;8.57;;;5.07;;
846;SDS011;410;48.954;9.474;2022-10-16T00:03:23;11.00;;;4.60;;
846;SDS011;410;48.954;9.474;2022-10-16T00:05:31;6.50;;;4.70;;
846;SDS011;410;48.954;9.474;2022-10-16T00:07:35;8.80;;;5.20;;
846;SDS011;410;48.954;9.474;2022-10-16T00:09:38;6.10;;;5.47;;
846;SDS011;410;48.954;9.474;2022-10-16T00:11:41;7.60;;;5.53;;
846;SDS011;410;48.954;9.474;2022-10-16T00:13:47;11.40;;;5.80;;
846;SDS011;410;48.954;9.474;2022-10-16T00:15:54;5.67;;;5.03;;
846;SDS011;410;48.954;9.474;2022-10-16T00:17:57;12.27;;;5.87;;
846;SDS011;410;48.954;9.474;2022-10-16T00:20:02;8.87;;;5.77;;
846;SDS011;410;48.954;9.474;2022-10-16T00:22:24;6.97;;;6.03;;
846;SDS011;410;48.954;9.474;2022-10-16T00:24:28;9.43;;;6.43;;
846;SDS011;410;48.954;9.474;2022-10-16T00:26:32;8.30;;;5.37;;
846;SDS011;410;48.954;9.474;2022-10-16T00:28:36;8.57;;;5.57;;
846;SDS011;410;48.954;9.474;2022-10-16T00:30:39;7.17;;;5.67;;
846;SDS011;410;48.954;9.474;2022-10-16T00:32:42;10.00;;;5.30;;
846;SDS011;410;48.954;9.474;2022-10-16T00:34:46;6.10;;;5.43;;
846;SDS011;410;48.954;9.474;2022-10-16T00:36:53;8.40;;;5.60;;
846;SDS011;410;48.954;9.474;2022-10-16T00:38:56;6.73;;;6.00;;
846;SDS011;410;48.954;9.474;2022-10-16T00:41:07;6.77;;;5.70;;
846;SDS011;410;48.954;9.474;2022-10-16T00:43:14;8.50;;;5.70;;
846;SDS011;410;48.954;9.474;2022-10-16T00:45:35;6.93;;;5.87;;
846;SDS011;410;48.954;9.474;2022-10-16T00:47:39;10.33;;;5.57;;
846;SDS011;410;48.954;9.474;2022-10-16T00:49:43;6.50;;;5.07;;
846;SDS011;410;48.954;9.474;2022-10-16T00:51:47;7.13;;;5.90;;
846;SDS011;410;48.954;9.474;2022-10-16T00:53:54;11.13;;;6.10;;
846;SDS011;410;48.954;9.474;2022-10-16T00:55:57;10.03;;;6.70;;
846;SDS011;410;48.954;9.474;2022-10-16T00:58:00;11.47;;;6.60;;
846;SDS011;410;48.954;9.474;2022-10-16T01:00:04;7.97;;;7.17;;
846;SDS011;410;48.954;9.474;2022-10-16T01:02:10;10.03;;;7.27;;
846;SDS011;410;48.954;9.474;2022-10-16T01:04:16;9.20;;;7.20;;
846;SDS011;410;48.954;9.474;2022-10-16T01:06:21;6.60;;;5.97;;
846;SDS011;410;48.954;9.474;2022-10-16T01:08:29;11.43;;;5.77;;
846;SDS011;410;48.954;9.474;2022-10-16T01:10:38;8.40;;;5.67;;
846;SDS011;410;48.954;9.474;2022-10-16T01:12:45;6.90;;;5.80;;
846;SDS011;410;48.954;9.474;2022-10-16T01:14:52;6.83;;;6.20;;
846;SDS011;410;48.954;9.474;2022-10-16T01:16:58;7.80;;;6.27;;
846;SDS011;410;48.954;9.474;2022-10-16T01:19:06;8.10;;;6.40;;
846;SDS011;410;48.954;9.474;2022-10-16T01:21:12;10.60;;;6.20;;
846;SDS011;410;48.954;9.474;2022-10-16T01:23:21;8.67;;;6.30;;
846;SDS011;410;48.954;9.474;2022-10-16T01:25:36;6.73;;;5.47;;
846;SDS011;410;48.954;9.474;2022-10-16T01:27:57;6.67;;;5.53;;
846;SDS011;410;48.954;9.474;2022-10-16T01:30:02;12.33;;;5.70;;
846;SDS011;410;48.954;9.474;2022-10-16T01:32:10;6.97;;;5.70;;
846;SDS011;410;48.954;9.474;2022-10-16T01:34:18;9.03;;;5.87;;
846;SDS011;410;48.954;9.474;2022-10-16T01:36:25;7.43;;;5.73;;
846;SDS011;410;48.954;9.474;2022-10-16T01:38:33;8.23;;;5.40;;
846;SDS011;410;48.954;9.474;2022-10-16T01:40:38;7.10;;;5.47;;
846;SDS011;410;48.954;9.474;2022-10-16T01:42:42;5.83;;;5.23;;
846;SDS011;410;48.954;9.474;2022-10-16T01:44:50;9.57;;;5.73;;
846;SDS011;410;48.954;9.474;2022-10-16T01:46:55;5.33;;;4.77;;
846;SDS011;410;48.954;9.474;2022-10-16T01:48:59;9.17;;;6.03;;
846;SDS011;410;48.954;9.474;2022-10-16T01:51:05;7.63;;;5.07;;
846;SDS011;410;48.954;9.474;2022-10-16T01:53:11;6.90;;;5.40;;
846;SDS011;410;48.954;9.474;2022-10-16T01:55:17;6.00;;;5.30;;
846;SDS011;410;48.954;9.474;2022-10-16T01:57:22;11.17;;;5.30;;
846;SDS011;410;48.954;9.474;2022-10-16T01:59:29;6.57;;;4.90;;
846;SDS011;410;48.954;9.474;2022-10-16T02:01:35;7.63;;;5.30;;
846;SDS011;410;48.954;9.474;2022-10-16T02:03:41;7.53;;;5.47;;
846;SDS011;410;48.954;9.474;2022-10-16T02:05:46;5.80;;;5.20;;
846;SDS011;410;48.954;9.474;2022-10-16T02:07:51;6.53;;;4.90;;
846;SDS011;410;48.954;9.474;2022-10-16T02:09:55;8.27;;;4.87;;
846;SDS011;410;48.954;9.474;2022-10-16T02:11:59;9.43;;;5.17;;
846;SDS011;410;48.954;9.474;2022-10-16T02:14:06;9.57;;;5.57;;
846;SDS011;410;48.954;9.474;2022-10-16T02:16:10;8.43;;;6.30;;
846;SDS011;410;48.954;9.474;2022-10-16T02:18:16;7.03;;;5.20;;
846;SDS011;410;48.954;9.474;2022-10-16T02:20:21;10.93;;;4.90;;
846;SDS011;410;48.954;9.474;2022-10-16T02:22:30;6.17;;;4.93;;
846;SDS011;410;48.954;9.474;2022-10-16T02:24:37;11.60;;;4.80;;
846;SDS011;410;48.954;9.474;2022-10-16T02:26:43;6.90;;;4.73;;
846;SDS011;410;48.954;9.474;2022-10-16T02:28:51;6.37;;;4.50;;
846;SDS011;410;48.954;9.474;2022-10-16T02:30:57;6.33;;;4.80;;
846;SDS011;410;48.954;9.474;2022-10-16T02:33:02;21.57;;;5.47;;
846;SDS011;410;48.954;9.474;2022-10-16T02:35:08;6.97;;;4.80;;
846;SDS011;410;48.954;9.474;2022-10-16T02:37:12;5.63;;;4.90;;
846;SDS011;410;48.954;9.474;2022-10-16T02:39:19;7.23;;;4.80;;
846;SDS011;410;48.954;9.474;2022-10-16T02:41:23;6.87;;;4.43;;
846;SDS011;410;48.954;9.474;2022-10-16T02:43:27;10.60;;;5.00;;
846;SDS011;410;48.954;9.474;2022-10-16T02:45:31;6.90;;;4.63;;
846;SDS011;410;48.954;9.474;2022-10-16T02:47:35;5.50;;;4.70;;
846;SDS011;410;48.954;9.474;2022-10-16T02:49:39;5.47;;;4.57;;
846;SDS011;410;48.954;9.474;2022-10-16T02:51:44;6.70;;;4.63;;
846;SDS011;410;48.954;9.474;2022-10-16T02:53:48;7.63;;;5.00;;
846;SDS011;410;48.954;9.474;2022-10-16T02:55:52;5.70;;;4.30;;
846;SDS011;410;48.954;9.474;2022-10-16T02:57:55;7.07;;;4.60;;
846;SDS011;410;48.954;9.474;2022-10-16T02:59:59;6.90;;;4.80;;
846;SDS011;410;48.954;9.474;2022-10-16T03:02:02;9.50;;;4.90;;
846;SDS011;410;48.954;9.474;2022-10-16T03:04:06;6.10;;;4.70;;
846;SDS011;410;48.954;9.474;2022-10-16T03:06:11;5.70;;;4.77;;
846;SDS011;410;48.954;9.474;2022-10-16T03:08:16;6.60;;;4.60;;
846;SDS011;410;48.954;9.474;2022-10-16T03:10:24;6.23;;;4.80;;
846;SDS011;410;48.954;9.474;2022-10-16T03:12:28;8.37;;;4.47;;
846;SDS011;410;48.954;9.474;2022-10-16T03:14:31;5.27;;;4.40;;
846;SDS011;410;48.954;9.474;2022-10-16T03:16:34;6.50;;;4.83;;
846;SDS011;410;48.954;9.474;2022-10-16T03:18:37;5.90;;;4.63;;
846;SDS011;410;48.954;9.474;2022-10-16T03:20:40;6.60;;;4.20;;
846;SDS011;410;48.954;9.474;2022-10-16T03:22:45;5.83;;;4.40;;
846;SDS011;410;48.954;9.474;2022-10-16T03:24:49;7.30;;;4.50;;
846;SDS011;410;48.954;9.474;2022-10-16T03:26:52;7.63;;;4.60;;
846;SDS011;410;48.954;9.474;2022-10-16T03:28:55;4.90;;;4.40;;
846;SDS011;410;48.954;9.474;2022-10-16T03:30:58;10.13;;;4.30;;
846;SDS011;410;48.954;9.474;2022-10-16T03:33:01;4.50;;;4.10;;
846;SDS011;410;48.954;9.474;2022-10-16T03:35:04;18.33;;;5.77;;
846;SDS011;410;48.954;9.474;2022-10-16T03:37:08;10.77;;;4.30;;
846;SDS011;410;48.954;9.474;2022-10-16T03:39:11;7.77;;;4.27;;
846;SDS011;410;48.954;9.474;2022-10-16T03:41:15;10.33;;;4.87;;
846;SDS011;410;48.954;9.474;2022-10-16T03:43:19;6.33;;;4.70;;
846;SDS011;410;48.954;9.474;2022-10-16T03:45:22;7.03;;;4.47;;
846;SDS011;410;48.954;9.474;2022-10-16T03:47:25;7.50;;;4.43;;
846;SDS011;410;48.954;9.474;2022-10-16T03:49:28;7.10;;;4.40;;
846;SDS011;410;48.954;9.474;2022-10-16T03:51:31;5.83;;;4.27;;
846;SDS011;410;48.954;9.474;2022-10-16T03:53:35;9.80;;;5.20;;
846;SDS011;410;48.954;9.474;2022-10-16T03:55:38;5.07;;;4.57;;
846;SDS011;410;48.954;9.474;2022-10-16T03:57:42;6.30;;;4.87;;
846;SDS011;410;48.954;9.474;2022-10-16T03:59:45;7.63;;;5.33;;
846;SDS011;410;48.954;9.474;2022-10-16T04:01:48;7.83;;;4.60;;
846;SDS011;410;48.954;9.474;2022-10-16T04:03:51;4.93;;;4.10;;
846;SDS011;410;48.954;9.474;2022-10-16T04:05:54;7.17;;;4.50;;
846;SDS011;410;48.954;9.474;2022-10-16T04:07:58;9.57;;;5.20;;
846;SDS011;410;48.954;9.474;2022-10-16T04:10:01;8.07;;;4.93;;
846;SDS011;410;48.954;9.474;2022-10-16T04:12:04;5.50;;;4.70;;
846;SDS011;410;48.954;9.474;2022-10-16T04:14:09;6.90;;;5.10;;
846;SDS011;410;48.954;9.474;2022-10-16T04:16:12;7.00;;;4.77;;
846;SDS011;410;48.954;9.474;2022-10-16T04:18:15;8.03;;;4.30;;
846;SDS011;410;48.954;9.474;2022-10-16T04:20:18;5.47;;;4.53;;
846;SDS011;410;48.954;9.474;2022-10-16T04:22:21;6.63;;;4.40;;
846;SDS011;410;48.954;9.474;2022-10-16T04:24:24;5.83;;;4.83;;
846;SDS011;410;48.954;9.474;2022-10-16T04:26:27;5.83;;;4.07;;
846;SDS011;410;48.954;9.474;2022-10-16T04:28:30;5.37;;;4.60;;
846;SDS011;410;48.954;9.474;2022-10-16T04:30:34;5.77;;;4.60;;
846;SDS011;410;48.954;9.474;2022-10-16T04:32:40;6.47;;;3.83;;
846;SDS011;410;48.954;9.474;2022-10-16T04:34:43;7.60;;;4.57;;
846;SDS011;410;48.954;9.474;2022-10-16T04:36:46;6.40;;;4.13;;
846;SDS011;410;48.954;9.474;2022-10-16T04:38:49;10.33;;;4.70;;
846;SDS011;410;48.954;9.474;2022-10-16T04:40:52;5.10;;;3.83;;
846;SDS011;410;48.954;9.474;2022-10-16T04:42:55;4.87;;;4.30;;
846;SDS011;410;48.954;9.474;2022-10-16T04:44:59;7.33;;;4.20;;
846;SDS011;410;48.954;9.474;2022-10-16T04:47:03;5.37;;;4.27;;
846;SDS011;410;48.954;9.474;2022-10-16T04:49:06;6.43;;;4.40;;
846;SDS011;410;48.954;9.474;2022-10-16T04:51:09;9.40;;;4.50;;
846;SDS011;410;48.954;9.474;2022-10-16T04:53:13;6.80;;;4.60;;
846;SDS011;410;48.954;9.474;2022-10-16T04:55:16;15.70;;;5.73;;
846;SDS011;410;48.954;9.474;2022-10-16T04:57:19;13.20;;;5.23;;
846;SDS011;410;48.954;9.474;2022-10-16T04:59:22;38.80;;;6.40;;
846;SDS011;410;48.954;9.474;2022-10-16T05:01:25;16.70;;;5.37;;
846;SDS011;410;48.954;9.474;2022-10-16T05:03:30;12.33;;;5.70;;
846;SDS011;410;48.954;9.474;2022-10-16T05:05:33;23.33;;;6.20;;
846;SDS011;410;48.954;9.474;2022-10-16T05:07:36;23.00;;;5.83;;
846;SDS011;410;48.954;9.474;2022-10-16T05:09:39;27.83;;;4.90;;
846;SDS011;410;48.954;9.474;2022-10-16T05:11:42;8.07;;;5.50;;
846;SDS011;410;48.954;9.474;2022-10-16T05:13:45;14.13;;;5.47;;
846;SDS011;410;48.954;9.474;2022-10-16T05:15:54;25.73;;;7.20;;
846;SDS011;410;48.954;9.474;2022-10-16T05:17:57;9.90;;;5.33;;
846;SDS011;410;48.954;9.474;2022-10-16T05:20:01;5.70;;;4.30;;
846;SDS011;410;48.954;9.474;2022-10-16T05:22:04;9.10;;;5.80;;
846;SDS011;410;48.954;9.474;2022-10-16T05:24:07;6.20;;;4.77;;
846;SDS011;410;48.954;9.474;2022-10-16T05:26:10;6.97;;;5.00;;
846;SDS011;410;48.954;9.474;2022-10-16T05:28:14;12.17;;;5.00;;
846;SDS011;410;48.954;9.474;2022-10-16T05:30:17;5.23;;;4.70;;
846;SDS011;410;48.954;9.474;2022-10-16T05:32:20;5.00;;;4.13;;
846;SDS011;410;48.954;9.474;2022-10-16T05:34:23;5.30;;;4.20;;
846;SDS011;410;48.954;9.474;2022-10-16T05:36:27;6.97;;;4.27;;
846;SDS011;410;48.954;9.474;2022-10-16T05:38:31;5.27;;;4.30;;
846;SDS011;410;48.954;9.474;2022-10-16T05:40:34;8.23;;;4.60;;
846;SDS011;410;48.954;9.474;2022-10-16T05:42:37;12.10;;;4.83;;
846;SDS011;410;48.954;9.474;2022-10-16T05:44:40;7.40;;;4.27;;
846;SDS011;410;48.954;9.474;2022-10-16T05:46:43;5.37;;;4.30;;
846;SDS011;410;48.954;9.474;2022-10-16T05:48:51;4.30;;;3.90;;
846;SDS011;410;48.954;9.474;2022-10-16T05:50:57;4.63;;;3.80;;
846;SDS011;410;48.954;9.474;2022-10-16T05:53:02;6.33;;;4.30;;
846;SDS011;410;48.954;9.474;2022-10-16T05:55:06;8.23;;;4.60;;
846;SDS011;410;48.954;9.474;2022-10-16T05:57:10;11.60;;;5.53;;
846;SDS011;410;48.954;9.474;2022-10-16T05:59:13;15.47;;;4.80;;
846;SDS011;410;48.954;9.474;2022-10-16T06:01:17;6.73;;;4.93;;
846;SDS011;410;48.954;9.474;2022-10-16T06:03:22;9.93;;;4.93;;
846;SDS011;410;48.954;9.474;2022-10-16T06:05:25;11.53;;;5.40;;
846;SDS011;410;48.954;9.474;2022-10-16T06:07:28;14.87;;;5.00;;
846;SDS011;410;48.954;9.474;2022-10-16T06:09:33;27.13;;;6.70;;
846;SDS011;410;48.954;9.474;2022-10-16T06:11:36;7.70;;;4.40;;
846;SDS011;410;48.954;9.474;2022-10-16T06:13:39;5.70;;;4.50;;
846;SDS011;410;48.954;9.474;2022-10-16T06:15:43;12.67;;;4.67;;
846;SDS011;410;48.954;9.474;2022-10-16T06:17:46;6.23;;;4.30;;
846;SDS011;410;48.954;9.474;2022-10-16T06:19:49;9.13;;;4.80;;
846;SDS011;410;48.954;9.474;2022-10-16T06:21:52;8.07;;;4.00;;
846;SDS011;410;48.954;9.474;2022-10-16T06:23:56;6.30;;;4.20;;
846;SDS011;410;48.954;9.474;2022-10-16T06:26:05;4.70;;;4.13;;
846;SDS011;410;48.954;9.474;2022-10-16T06:28:09;5.10;;;3.83;;
846;SDS011;410;48.954;9.474;2022-10-16T06:30:12;6.30;;;4.20;;
846;SDS011;410;48.954;9.474;2022-10-16T06:32:16;6.53;;;4.10;;
846;SDS011;410;48.954;9.474;2022-10-16T06:34:19;6.33;;;4.37;;
846;SDS011;410;48.954;9.474;2022-10-16T06:36:22;12.67;;;5.90;;
846;SDS011;410;48.954;9.474;2022-10-16T06:38:26;7.87;;;5.67;;
846;SDS011;410;48.954;9.474;2022-10-16T06:40:29;6.40;;;5.30;;
846;SDS011;410;48.954;9.474;2022-10-16T06:42:34;20.83;;;8.80;;
846;SDS011;410;48.954;9.474;2022-10-16T06:44:37;8.67;;;6.60;;
846;SDS011;410;48.954;9.474;2022-10-16T06:46:40;11.40;;;6.27;;
846;SDS011;410;48.954;9.474;2022-10-16T06:48:43;9.10;;;5.73;;
846;SDS011;410;48.954;9.474;2022-10-16T06:50:54;6.20;;;5.37;;
846;SDS011;410;48.954;9.474;2022-10-16T06:52:58;6.57;;;5.63;;
846;SDS011;410;48.954;9.474;2022-10-16T06:55:02;6.67;;;5.20;;
846;SDS011;410;48.954;9.474;2022-10-16T06:57:05;13.10;;;5.90;;
846;SDS011;410;48.954;9.474;2022-10-16T06:59:10;6.70;;;5.80;;
846;SDS011;410;48.954;9.474;2022-10-16T07:01:13;5.77;;;5.17;;
846;SDS011;410;48.954;9.474;2022-10-16T07:03:20;8.30;;;7.03;;
846;SDS011;410;48.954;9.474;2022-10-16T07:05:23;6.37;;;5.60;;
846;SDS011;410;48.954;9.474;2022-10-16T07:07:26;8.03;;;5.77;;
846;SDS011;410;48.954;9.474;2022-10-16T07:09:29;8.57;;;5.63;;
846;SDS011;410;48.954;9.474;2022-10-16T07:11:33;6.80;;;5.40;;
846;SDS011;410;48.954;9.474;2022-10-16T07:13:36;10.10;;;4.93;;
846;SDS011;410;48.954;9.474;2022-10-16T07:15:42;6.67;;;4.27;;
846;SDS011;410;48.954;9.474;2022-10-16T07:17:45;6.93;;;4.33;;
846;SDS011;410;48.954;9.474;2022-10-16T07:19:48;5.10;;;4.07;;
846;SDS011;410;48.954;9.474;2022-10-16T07:21:51;6.60;;;4.00;;
846;SDS011;410;48.954;9.474;2022-10-16T07:23:54;6.93;;;3.87;;
846;SDS011;410;48.954;9.474;2022-10-16T07:25:58;7.27;;;4.10;;
846;SDS011;410;48.954;9.474;2022-10-16T07:28:02;4.40;;;3.70;;
846;SDS011;410;48.954;9.474;2022-10-16T07:30:06;12.07;;;4.30;;
846;SDS011;410;48.954;9.474;2022-10-16T07:32:11;5.73;;;4.00;;
846;SDS011;410;48.954;9.474;2022-10-16T07:34:15;4.77;;;3.80;;
846;SDS011;410;48.954;9.474;2022-10-16T07:36:19;5.67;;;4.00;;
846;SDS011;410;48.954;9.474;2022-10-16T07:38:23;6.20;;;3.70;;
846;SDS011;410;48.954;9.474;2022-10-16T07:40:26;6.97;;;4.50;;
846;SDS011;410;48.954;9.474;2022-10-16T07:42:29;4.17;;;3.53;;
846;SDS011;410;48.954;9.474;2022-10-16T07:44:32;5.07;;;3.90;;
846;SDS011;410;48.954;9.474;2022-10-16T07:46:35;4.83;;;3.83;;
846;SDS011;410;48.954;9.474;2022-10-16T07:48:40;4.47;;;3.83;;
846;SDS011;410;48.954;9.474;2022-10-16T07:50:47;5.63;;;4.10;;
846;SDS011;410;48.954;9.474;2022-10-16T07:52:50;4.80;;;4.30;;
846;SDS011;410;48.954;9.474;2022-10-16T07:54:53;5.00;;;4.50;;
846;SDS011;410;48.954;9.474;2022-10-16T07:57:01;7.20;;;4.67;;
846;SDS011;410;48.954;9.474;2022-10-16T07:59:04;6.23;;;4.70;;
846;SDS011;410;48.954;9.474;2022-10-16T08:01:08;7.07;;;4.47;;
846;SDS011;410;48.954;9.474;2022-10-16T08:03:13;11.70;;;4.23;;
846;SDS011;410;48.954;9.474;2022-10-16T08:05:17;4.27;;;3.87;;
846;SDS011;410;48.954;9.474;2022-10-16T08:07:21;6.17;;;3.83;;
846;SDS011;410;48.954;9.474;2022-10-16T08:09:25;6.00;;;4.50;;
846;SDS011;410;48.954;9.474;2022-10-16T08:11:33;8.20;;;6.80;;
846;SDS011;410;48.954;9.474;2022-10-16T08:13:36;7.00;;;4.70;;
846;SDS011;410;48.954;9.474;2022-10-16T08:15:40;10.80;;;6.07;;
846;SDS011;410;48.954;9.474;2022-10-16T08:17:43;5.20;;;4.03;;
846;SDS011;410;48.954;9.474;2022-10-16T08:19:46;7.00;;;4.70;;
846;SDS011;410;48.954;9.474;2022-10-16T08:21:51;10.93;;;4.50;;
846;SDS011;410;48.954;9.474;2022-10-16T08:23:54;9.17;;;6.90;;
846;SDS011;410;48.954;9.474;2022-10-16T08:26:01;9.17;;;8.27;;
846;SDS011;410;48.954;9.474;2022-10-16T08:28:06;8.90;;;7.97;;
846;SDS011;410;48.954;9.474;2022-10-16T08:30:10;6.93;;;6.33;;
846;SDS011;410;48.954;9.474;2022-10-16T08:32:14;7.70;;;6.87;;
846;SDS011;410;48.954;9.474;2022-10-16T08:34:17;8.80;;;8.00;;
846;SDS011;410;48.954;9.474;2022-10-16T08:36:20;10.37;;;9.37;;
846;SDS011;410;48.954;9.474;2022-10-16T08:38:25;6.60;;;4.80;;
846;SDS011;410;48.954;9.474;2022-10-16T08:40:29;7.47;;;6.57;;
846;SDS011;410;48.954;9.474;2022-10-16T08:42:40;6.03;;;4.10;;
846;SDS011;410;48.954;9.474;2022-10-16T08:47:25;6.30;;;5.37;;
846;SDS011;410;48.954;9.474;2022-10-16T08:49:30;9.50;;;5.63;;
846;SDS011;410;48.954;9.474;2022-10-16T08:51:34;7.10;;;5.63;;
846;SDS011;410;48.954;9.474;2022-10-16T08:53:46;4.77;;;4.27;;
846;SDS011;410;48.954;9.474;2022-10-16T08:55:53;5.93;;;4.13;;
846;SDS011;410;48.954;9.474;2022-10-16T08:57:56;5.00;;;4.50;;
846;SDS011;410;48.954;9.474;2022-10-16T09:00:00;9.43;;;5.80;;
846;SDS011;410;48.954;9.474;2022-10-16T09:02:16;6.23;;;4.80;;
846;SDS011;410;48.954;9.474;2022-10-16T09:04:40;7.53;;;4.33;;
846;SDS011;410;48.954;9.474;2022-10-16T09:06:57;7.97;;;4.70;;
846;SDS011;410;48.954;9.474;2022-10-16T09:09:11;8.90;;;5.03;;
846;SDS011;410;48.954;9.474;2022-10-16T09:11:24;6.63;;;4.10;;
846;SDS011;410;48.954;9.474;2022-10-16T09:13:38;4.70;;;4.00;;
846;SDS011;410;48.954;9.474;2022-10-16T09:15:47;7.47;;;4.55;;
846;SDS011;410;48.954;9.474;2022-10-16T09:17:57;11.13;;;4.03;;
846;SDS011;410;48.954;9.474;2022-10-16T09:20:11;6.73;;;4.90;;
846;SDS011;410;48.954;9.474;2022-10-16T09:22:21;5.40;;;4.90;;
846;SDS011;410;48.954;9.474;2022-10-16T09:24:29;4.50;;;3.83;;
846;SDS011;410;48.954;9.474;2022-10-16T09:26:32;5.97;;;3.97;;
846;SDS011;410;48.954;9.474;2022-10-16T09:28:35;5.97;;;4.10;;
846;SDS011;410;48.954;9.474;2022-10-16T09:30:39;5.80;;;3.93;;
846;SDS011;410;48.954;9.474;2022-10-16T09:32:42;6.30;;;3.77;;
846;SDS011;410;48.954;9.474;2022-10-16T09:34:48;5.60;;;4.33;;
846;SDS011;410;48.954;9.474;2022-10-16T09:36:53;5.00;;;4.37;;
846;SDS011;410;48.954;9.474;2022-10-16T09:39:03;6.87;;;5.20;;
846;SDS011;410;48.954;9.474;2022-10-16T09:41:13;6.10;;;5.33;;
846;SDS011;410;48.954;9.474;2022-10-16T09:43:21;5.47;;;4.70;;
846;SDS011;410;48.954;9.474;2022-10-16T09:45:25;7.37;;;5.60;;
846;SDS011;410;48.954;9.474;2022-10-16T09:47:29;6.20;;;5.57;;
846;SDS011;410;48.954;9.474;2022-10-16T09:49:33;6.80;;;4.93;;
846;SDS011;410;48.954;9.474;2022-10-16T09:51:36;5.00;;;4.50;;
846;SDS011;410;48.954;9.474;2022-10-16T09:53:41;7.10;;;4.60;;
846;SDS011;410;48.954;9.474;2022-10-16T09:55:48;7.10;;;4.90;;
846;SDS011;410;48.954;9.474;2022-10-16T09:57:53;7.93;;;5.23;;
846;SDS011;410;48.954;9.474;2022-10-16T09:59:57;5.23;;;4.03;;
846;SDS011;410;48.954;9.474;2022-10-16T10:02:01;6.10;;;4.43;;
846;SDS011;410;48.954;9.474;2022-10-16T10:04:07;5.97;;;3.23;;
846;SDS011;410;48.954;9.474;2022-10-16T10:06:18;5.17;;;4.00;;
846;SDS011;410;48.954;9.474;2022-10-16T10:08:25;6.30;;;2.50;;
846;SDS011;410;48.954;9.474;2022-10-16T10:10:28;4.00;;;2.40;;
846;SDS011;410;48.954;9.474;2022-10-16T10:12:33;4.30;;;2.43;;
846;SDS011;410;48.954;9.474;2022-10-16T10:14:39;3.57;;;2.10;;
846;SDS011;410;48.954;9.474;2022-10-16T10:16:46;3.80;;;1.93;;
846;SDS011;410;48.954;9.474;2022-10-16T10:18:57;5.80;;;2.23;;
846;SDS011;410;48.954;9.474;2022-10-16T10:21:01;3.10;;;2.10;;
846;SDS011;410;48.954;9.474;2022-10-16T10:23:18;3.23;;;2.07;;
846;SDS011;410;48.954;9.474;2022-10-16T10:25:26;3.53;;;1.70;;
846;SDS011;410;48.954;9.474;2022-10-16T10:27:37;3.80;;;2.20;;
846;SDS011;410;48.954;9.474;2022-10-16T10:29:47;7.07;;;1.90;;
846;SDS011;410;48.954;9.474;2022-10-16T10:31:57;3.80;;;1.90;;
846;SDS011;410;48.954;9.474;2022-10-16T10:34:12;3.10;;;1.70;;
846;SDS011;410;48.954;9.474;2022-10-16T10:36:32;3.60;;;2.00;;
846;SDS011;410;48.954;9.474;2022-10-16T10:38:39;4.40;;;2.10;;
846;SDS011;410;48.954;9.474;2022-10-16T10:40:49;4.83;;;2.57;;
846;SDS011;410;48.954;9.474;2022-10-16T10:42:56;4.40;;;2.93;;
846;SDS011;410;48.954;9.474;2022-10-16T10:47:38;7.27;;;2.40;;
846;SDS011;410;48.954;9.474;2022-10-16T10:49:51;4.27;;;2.10;;
846;SDS011;410;48.954;9.474;2022-10-16T10:52:02;3.87;;;1.77;;
846;SDS011;410;48.954;9.474;2022-10-16T10:54:14;6.50;;;1.90;;
846;SDS011;410;48.954;9.474;2022-10-16T10:56:24;7.50;;;3.80;;
846;SDS011;410;48.954;9.474;2022-10-16T10:58:42;5.80;;;3.50;;
846;SDS011;410;48.954;9.474;2022-10-16T11:01:06;4.77;;;2.43;;
846;SDS011;410;48.954;9.474;2022-10-16T11:03:13;3.10;;;1.90;;
846;SDS011;410;48.954;9.474;2022-10-16T11:05:27;2.97;;;1.73;;
846;SDS011;410;48.954;9.474;2022-10-16T11:07:36;3.10;;;1.80;;
846;SDS011;410;48.954;9.474;2022-10-16T11:09:42;5.13;;;1.90;;
846;SDS011;410;48.954;9.474;2022-10-16T11:11:49;4.20;;;2.20;;
846;SDS011;410;48.954;9.474;2022-10-16T11:13:55;4.70;;;2.40;;
846;SDS011;410;48.954;9.474;2022-10-16T11:16:04;3.23;;;1.97;;
846;SDS011;410;48.954;9.474;2022-10-16T11:18:18;5.27;;;2.60;;
846;SDS011;410;48.954;9.474;2022-10-16T11:20:24;3.47;;;2.17;;
846;SDS011;410;48.954;9.474;2022-10-16T11:22:30;2.93;;;1.93;;
846;SDS011;410;48.954;9.474;2022-10-16T11:24:37;2.57;;;1.77;;
846;SDS011;410;48.954;9.474;2022-10-16T11:26:45;6.87;;;2.00;;
846;SDS011;410;48.954;9.474;2022-10-16T11:28:49;3.17;;;1.97;;
846;SDS011;410;48.954;9.474;2022-10-16T11:30:55;4.40;;;1.80;;
846;SDS011;410;48.954;9.474;2022-10-16T11:33:04;4.97;;;2.00;;
846;SDS011;410;48.954;9.474;2022-10-16T11:35:17;3.40;;;1.97;;
846;SDS011;410;48.954;9.474;2022-10-16T11:37:24;4.57;;;2.60;;
846;SDS011;410;48.954;9.474;2022-10-16T11:39:30;5.53;;;2.03;;
846;SDS011;410;48.954;9.474;2022-10-16T11:41:34;2.43;;;1.83;;
846;SDS011;410;48.954;9.474;2022-10-16T11:43:39;2.23;;;1.63;;
846;SDS011;410;48.954;9.474;2022-10-16T11:45:46;2.90;;;2.07;;
846;SDS011;410;48.954;9.474;2022-10-16T11:47:54;7.33;;;5.20;;
846;SDS011;410;48.954;9.474;2022-10-16T11:50:04;10.63;;;4.40;;
846;SDS011;410;48.954;9.474;2022-10-16T11:52:15;2.47;;;2.00;;
846;SDS011;410;48.954;9.474;2022-10-16T11:54:23;3.33;;;2.13;;
846;SDS011;410;48.954;9.474;2022-10-16T11:56:29;11.37;;;4.57;;
846;SDS011;410;48.954;9.474;2022-10-16T11:58:34;7.10;;;1.93;;
846;SDS011;410;48.954;9.474;2022-10-16T12:00:41;2.60;;;1.90;;
846;SDS011;410;48.954;9.474;2022-10-16T12:02:50;2.50;;;1.90;;
846;SDS011;410;48.954;9.474;2022-10-16T12:05:01;3.00;;;2.00;;
846;SDS011;410;48.954;9.474;2022-10-16T12:07:14;5.57;;;2.47;;
846;SDS011;410;48.954;9.474;2022-10-16T12:09:21;2.47;;;1.77;;
846;SDS011;410;48.954;9.474;2022-10-16T12:11:31;3.67;;;1.90;;
846;SDS011;410;48.954;9.474;2022-10-16T12:13:37;3.30;;;1.70;;
846;SDS011;410;48.954;9.474;2022-10-16T12:15:42;2.93;;;1.70;;
846;SDS011;410;48.954;9.474;2022-10-16T12:18:00;5.13;;;1.77;;
846;SDS011;410;48.954;9.474;2022-10-16T12:20:19;4.20;;;1.90;;
846;SDS011;410;48.954;9.474;2022-10-16T12:22:28;4.63;;;1.90;;
846;SDS011;410;48.954;9.474;2022-10-16T12:24:34;3.43;;;2.30;;
846;SDS011;410;48.954;9.474;2022-10-16T12:26:38;2.60;;;2.20;;
846;SDS011;410;48.954;9.474;2022-10-16T12:28:43;2.10;;;1.77;;
846;SDS011;410;48.954;9.474;2022-10-16T12:30:52;2.80;;;2.03;;
846;SDS011;410;48.954;9.474;2022-10-16T12:32:56;2.73;;;1.87;;
846;SDS011;410;48.954;9.474;2022-10-16T12:35:00;2.87;;;1.90;;
846;SDS011;410;48.954;9.474;2022-10-16T12:37:10;2.83;;;1.70;;
846;SDS011;410;48.954;9.474;2022-10-16T12:39:20;2.87;;;1.90;;
846;SDS011;410;48.954;9.474;2022-10-16T12:41:25;5.07;;;2.13;;
846;SDS011;410;48.954;9.474;2022-10-16T12:43:36;2.87;;;1.90;;
846;SDS011;410;48.954;9.474;2022-10-16T12:45:43;3.10;;;2.10;;
846;SDS011;410;48.954;9.474;2022-10-16T12:47:48;3.40;;;1.60;;
846;SDS011;410;48.954;9.474;2022-10-16T12:49:53;4.20;;;2.00;;
846;SDS011;410;48.954;9.474;2022-10-16T12:51:57;3.90;;;1.90;;
846;SDS011;410;48.954;9.474;2022-10-16T12:54:03;3.30;;;1.80;;
846;SDS011;410;48.954;9.474;2022-10-16T12:56:14;6.93;;;2.17;;
846;SDS011;410;48.954;9.474;2022-10-16T12:58:28;3.13;;;1.97;;
846;SDS011;410;48.954;9.474;2022-10-16T13:00:55;2.60;;;1.87;;
846;SDS011;410;48.954;9.474;2022-10-16T13:05:32;3.60;;;1.70;;
846;SDS011;410;48.954;9.474;2022-10-16T13:07:45;3.00;;;1.90;;
846;SDS011;410;48.954;9.474;2022-10-16T13:09:57;2.80;;;2.00;;
846;SDS011;410;48.954;9.474;2022-10-16T13:12:14;6.73;;;2.40;;
846;SDS011;410;48.954;9.474;2022-10-16T13:14:33;3.77;;;1.90;;
846;SDS011;410;48.954;9.474;2022-10-16T13:16:50;2.23;;;1.90;;
846;SDS011;410;48.954;9.474;2022-10-16T13:19:00;3.67;;;2.30;;
846;SDS011;410;48.954;9.474;2022-10-16T13:21:14;3.10;;;2.00;;
846;SDS011;410;48.954;9.474;2022-10-16T13:23:23;5.43;;;2.50;;
846;SDS011;410;48.954;9.474;2022-10-16T13:25:33;3.00;;;1.70;;
846;SDS011;410;48.954;9.474;2022-10-16T13:27:44;2.83;;;1.80;;
846;SDS011;410;48.954;9.474;2022-10-16T13:29:52;2.60;;;2.03;;
846;SDS011;410;48.954;9.474;2022-10-16T13:31:57;2.60;;;1.93;;
846;SDS011;410;48.954;9.474;2022-10-16T13:34:00;3.57;;;1.90;;